Time;durP1;ratioP1;P1;durP2;ratioP2;P2;SDS_P1;SDS_P2;PMS_P1;PMS_P2;Temp;Humidity;BMP_temperature;BMP_pressure;BME280_temperature;BME280_humidity;BME280_pressure;Samples;Min_cycle;Max_cycle;Signal;HPM_P1;HPM_P2
2022/05/08 00:02:07;;;;;;;9.13;6.10;;;15.50;99.90;;;;;;5092642;28;20021;-87
2022/05/08 00:04:33;;;;;;;6.82;6.18;;;15.50;99.90;;;;;;5093399;28;20028;-87
2022/05/08 00:06:59;;;;;;;6.57;5.80;;;15.20;99.90;;;;;;5093617;28;20028;-87
2022/05/08 00:09:24;;;;;;;6.57;5.72;;;15.30;99.90;;;;;;5092538;28;20055;-87
2022/05/08 00:11:52;;;;;;;7.75;5.50;;;15.40;99.90;;;;;;5091631;28;20024;-87
2022/05/08 00:14:18;;;;;;;6.88;5.97;;;15.20;99.90;;;;;;5092844;28;20020;-87
2022/05/08 00:16:44;;;;;;;9.18;6.68;;;15.00;99.90;;;;;;5092667;28;20180;-87
2022/05/08 00:19:09;;;;;;;7.43;6.70;;;15.10;99.90;;;;;;5093196;28;20012;-87
2022/05/08 00:21:35;;;;;;;7.55;6.53;;;14.90;99.90;;;;;;5092685;28;20035;-87
2022/05/08 00:24:01;;;;;;;7.95;6.50;;;14.80;99.90;;;;;;5086512;28;20089;-87
2022/05/08 00:26:26;;;;;;;7.72;7.00;;;14.60;99.90;;;;;;5081576;28;20048;-87
2022/05/08 00:28:52;;;;;;;7.35;6.28;;;14.90;99.90;;;;;;5092468;28;20024;-87
2022/05/08 00:31:18;;;;;;;7.15;6.45;;;14.90;99.90;;;;;;5092538;28;20031;-87
2022/05/08 00:33:44;;;;;;;7.97;6.25;;;14.80;99.90;;;;;;5092853;28;20035;-87
2022/05/08 00:36:09;;;;;;;11.27;6.25;;;14.90;99.90;;;;;;5092235;28;20048;-87
2022/05/08 00:38:35;;;;;;;7.72;5.78;;;14.80;99.90;;;;;;5091791;28;20399;-87
2022/05/08 00:41:01;;;;;;;7.32;5.95;;;14.80;99.90;;;;;;5090985;28;20039;-87
2022/05/08 00:43:32;;;;;;;7.18;6.47;;;14.60;99.90;;;;;;5092307;28;20059;-87
2022/05/08 00:45:58;;;;;;;7.25;6.25;;;14.50;99.90;;;;;;5089005;28;20111;-87
2022/05/08 00:48:23;;;;;;;7.65;6.50;;;14.30;99.90;;;;;;5092083;28;20031;-87
2022/05/08 00:50:52;;;;;;;10.05;6.55;;;14.20;99.90;;;;;;5092209;28;20077;-87
2022/05/08 00:53:19;;;;;;;6.80;6.00;;;14.20;99.90;;;;;;5092104;28;20027;-87
2022/05/08 00:55:46;;;;;;;9.38;7.57;;;14.20;99.90;;;;;;5091937;28;20043;-87
2022/05/08 00:58:12;;;;;;;6.90;6.20;;;14.20;99.90;;;;;;5091809;28;20050;-87
2022/05/08 01:00:38;;;;;;;12.32;7.47;;;14.10;99.90;;;;;;5091524;28;20036;-87
2022/05/08 01:03:04;;;;;;;8.13;6.70;;;13.80;99.90;;;;;;5091733;28;20027;-87
2022/05/08 01:05:30;;;;;;;11.63;6.95;;;14.00;99.90;;;;;;5091518;28;20027;-87
2022/05/08 01:07:55;;;;;;;8.35;6.97;;;14.10;99.90;;;;;;5091771;28;20078;-87
2022/05/08 01:10:22;;;;;;;10.68;6.70;;;14.10;99.90;;;;;;5091650;28;20016;-87
2022/05/08 01:12:47;;;;;;;9.25;7.07;;;14.20;99.90;;;;;;5092111;28;20020;-87
2022/05/08 01:15:18;;;;;;;8.77;7.20;;;14.30;99.90;;;;;;5091578;28;20032;-87
2022/05/08 01:17:44;;;;;;;6.65;5.95;;;14.10;99.90;;;;;;5091487;28;20024;-87
2022/05/08 01:20:10;;;;;;;7.57;6.85;;;13.90;99.90;;;;;;5091637;28;20019;-87
2022/05/08 01:22:37;;;;;;;8.05;6.53;;;13.90;99.90;;;;;;5090719;28;20024;-87
2022/05/08 01:25:04;;;;;;;8.82;6.28;;;13.80;99.90;;;;;;5091923;28;20461;-87
2022/05/08 01:27:29;;;;;;;7.15;6.43;;;13.80;99.90;;;;;;5091250;28;20056;-87
2022/05/08 01:29:56;;;;;;;7.32;6.30;;;13.90;99.90;;;;;;5091206;28;20036;-87
2022/05/08 01:32:22;;;;;;;10.25;6.50;;;14.00;99.90;;;;;;5091250;28;20032;-87
2022/05/08 01:34:48;;;;;;;8.88;6.43;;;13.80;99.90;;;;;;5091769;28;20034;-86
2022/05/08 01:37:13;;;;;;;10.02;6.88;;;13.50;99.90;;;;;;5087370;28;20099;-87
2022/05/08 01:39:39;;;;;;;7.05;6.45;;;13.60;99.90;;;;;;5090024;28;20097;-87
2022/05/08 01:42:06;;;;;;;9.25;6.70;;;13.70;99.90;;;;;;5091343;28;20066;-87
2022/05/08 01:44:32;;;;;;;7.55;6.80;;;13.70;99.90;;;;;;5090056;28;20028;-87
2022/05/08 01:49:42;;;;;;;9.02;7.13;;;13.60;99.90;;;;;;5091462;28;20050;-87
2022/05/08 01:52:08;;;;;;;7.78;6.95;;;13.60;99.90;;;;;;5090244;28;20032;-87
2022/05/08 01:54:34;;;;;;;8.20;6.93;;;13.70;99.90;;;;;;5091182;28;20035;-87
2022/05/08 01:56:59;;;;;;;7.65;6.45;;;13.70;99.90;;;;;;5090017;28;20039;-87
2022/05/08 01:59:25;;;;;;;7.57;6.78;;;13.80;99.90;;;;;;5090690;28;20032;-87
2022/05/08 02:01:51;;;;;;;9.35;7.28;;;13.80;99.90;;;;;;5090386;28;20064;-87
2022/05/08 02:04:18;;;;;;;9.60;7.28;;;13.50;99.90;;;;;;5091582;28;20028;-87
2022/05/08 02:06:47;;;;;;;7.57;6.80;;;13.40;99.90;;;;;;5089815;28;20085;-87
2022/05/08 02:09:12;;;;;;;11.02;7.40;;;13.30;99.90;;;;;;5091199;28;20476;-87
2022/05/08 02:11:38;;;;;;;7.47;6.75;;;13.30;99.90;;;;;;5091125;28;20061;-87
2022/05/08 02:14:04;;;;;;;8.05;6.95;;;13.30;99.90;;;;;;5090723;28;20031;-87
2022/05/08 02:16:30;;;;;;;7.07;6.38;;;13.40;99.90;;;;;;5093670;28;20459;-86
2022/05/08 02:18:56;;;;;;;8.80;7.03;;;13.40;99.90;;;;;;5095644;28;20047;-87
2022/05/08 02:21:22;;;;;;;9.52;7.10;;;13.30;99.90;;;;;;5095025;28;20122;-87
2022/05/08 02:23:47;;;;;;;8.80;7.10;;;13.10;99.90;;;;;;5093172;28;20024;-87
2022/05/08 02:26:13;;;;;;;8.32;6.50;;;13.20;99.90;;;;;;5095370;28;20420;-87
2022/05/08 02:28:39;;;;;;;9.23;6.60;;;13.30;99.90;;;;;;5094373;28;20564;-87
2022/05/08 02:31:05;;;;;;;9.63;6.07;;;13.20;99.90;;;;;;5095455;28;20028;-86
2022/05/08 02:33:32;;;;;;;7.38;6.47;;;13.20;99.90;;;;;;5094735;28;20396;-87
2022/05/08 02:35:58;;;;;;;7.47;6.43;;;13.20;99.90;;;;;;5093603;28;20028;-87
2022/05/08 02:38:24;;;;;;;7.20;6.38;;;13.10;99.90;;;;;;5094421;28;20080;-87
2022/05/08 02:40:51;;;;;;;6.90;6.30;;;13.30;99.90;;;;;;5092925;28;20028;-86
2022/05/08 02:43:20;;;;;;;7.15;6.45;;;13.30;99.90;;;;;;5095079;28;20157;-86
2022/05/08 02:45:47;;;;;;;7.43;6.45;;;13.20;99.90;;;;;;5094692;28;20448;-87
2022/05/08 02:48:13;;;;;;;8.10;6.50;;;13.20;99.90;;;;;;5094980;28;20043;-87
2022/05/08 02:50:39;;;;;;;8.32;6.63;;;13.20;99.90;;;;;;5094391;28;20071;-87
2022/05/08 02:53:05;;;;;;;6.95;6.25;;;13.40;99.90;;;;;;5092866;28;20051;-87
2022/05/08 02:58:33;;;;;;;7.47;6.63;;;13.10;99.90;;;;;;5091335;28;20070;-87
2022/05/08 03:00:59;;;;;;;6.63;5.93;;;13.20;99.90;;;;;;5093411;28;20485;-87
2022/05/08 03:03:26;;;;;;;6.55;5.95;;;13.30;99.90;;;;;;5092704;28;20024;-87
2022/05/08 03:05:51;;;;;;;7.47;6.10;;;13.30;99.90;;;;;;5092568;28;20519;-87
2022/05/08 03:08:17;;;;;;;7.28;5.60;;;13.30;99.90;;;;;;5094089;28;20055;-87
2022/05/08 03:13:29;;;;;;;6.47;5.88;;;13.20;99.90;;;;;;5092651;28;20031;-87
2022/05/08 03:15:55;;;;;;;6.60;6.00;;;12.70;99.90;;;;;;5094045;28;20496;-87
2022/05/08 03:18:22;;;;;;;7.55;5.32;;;12.50;99.90;;;;;;5093906;28;20032;-87
2022/05/08 03:20:47;;;;;;;6.40;5.82;;;12.40;99.90;;;;;;5093099;28;20028;-87
2022/05/08 03:23:16;;;;;;;8.63;6.03;;;12.70;99.90;;;;;;5093701;28;20087;-87
2022/05/08 03:25:45;;;;;;;7.45;6.05;;;12.60;99.90;;;;;;5093893;28;20446;-87
2022/05/08 03:28:15;;;;;;;7.00;6.13;;;12.60;99.90;;;;;;5092200;28;20127;-87
2022/05/08 03:30:41;;;;;;;7.72;5.95;;;12.60;99.90;;;;;;5093754;28;20062;-87
2022/05/08 03:33:08;;;;;;;9.75;6.10;;;12.70;99.90;;;;;;5093766;28;20039;-86
2022/05/08 03:35:35;;;;;;;7.25;5.95;;;12.90;99.90;;;;;;5090948;28;20109;-87
2022/05/08 03:38:01;;;;;;;7.90;6.47;;;12.80;99.90;;;;;;5079569;28;20028;-87
2022/05/08 03:40:27;;;;;;;7.30;6.10;;;12.50;99.90;;;;;;5093388;28;20093;-87
2022/05/08 03:42:55;;;;;;;8.00;5.93;;;12.20;99.90;;;;;;5093396;28;20020;-86
2022/05/08 03:45:21;;;;;;;6.57;6.00;;;12.30;99.90;;;;;;5091967;28;20036;-86
2022/05/08 03:47:51;;;;;;;9.20;6.68;;;12.60;99.90;;;;;;5093023;28;20031;-87
2022/05/08 03:50:17;;;;;;;6.55;5.95;;;12.60;99.90;;;;;;5093159;28;20050;-87
2022/05/08 03:52:43;;;;;;;6.38;5.75;;;12.60;99.90;;;;;;5093470;28;20032;-87
2022/05/08 03:55:09;;;;;;;7.72;6.57;;;12.60;99.90;;;;;;5093374;28;20039;-87
2022/05/08 03:57:34;;;;;;;7.13;5.80;;;12.60;99.90;;;;;;5093024;28;20043;-87
2022/05/08 04:00:00;;;;;;;6.47;5.88;;;12.70;99.90;;;;;;5093079;28;20032;-87
2022/05/08 04:02:26;;;;;;;6.15;5.57;;;12.80;99.90;;;;;;5093226;28;20051;-87
2022/05/08 04:04:52;;;;;;;6.63;5.68;;;12.70;99.90;;;;;;5093149;28;20514;-86
2022/05/08 04:07:17;;;;;;;6.25;5.65;;;12.70;99.90;;;;;;5093388;28;20054;-87
2022/05/08 04:09:43;;;;;;;6.40;5.80;;;12.30;99.90;;;;;;5092824;28;20028;-87
2022/05/08 04:12:08;;;;;;;9.77;6.22;;;11.90;99.90;;;;;;5091500;28;20107;-87
2022/05/08 04:14:34;;;;;;;6.78;6.03;;;11.70;99.90;;;;;;5092717;28;20244;-86
2022/05/08 04:17:00;;;;;;;6.15;5.55;;;11.70;99.90;;;;;;5093125;28;20024;-86
2022/05/08 04:19:26;;;;;;;7.00;6.40;;;11.90;99.90;;;;;;5091450;28;20561;-87
2022/05/08 04:24:16;;;;;;;7.10;6.20;;;12.10;99.90;;;;;;5093098;28;20026;-86
2022/05/08 04:24:41;;;;;;;7.53;6.40;;;12.20;99.90;;;;;;5092079;28;20031;-87
2022/05/08 04:27:06;;;;;;;8.95;6.35;;;12.40;99.90;;;;;;5092194;28;20043;-87
2022/05/08 04:29:32;;;;;;;9.98;6.00;;;12.30;99.90;;;;;;5091105;28;20421;-87
2022/05/08 04:31:57;;;;;;;7.70;6.20;;;12.00;99.90;;;;;;5092516;28;20035;-87
2022/05/08 04:34:23;;;;;;;6.65;6.05;;;12.20;99.90;;;;;;5092784;28;20032;-87
2022/05/08 04:36:48;;;;;;;9.75;6.40;;;12.30;99.90;;;;;;5091476;28;20392;-85
2022/05/08 04:39:14;;;;;;;7.85;6.18;;;12.40;99.90;;;;;;5091366;28;20112;-86
2022/05/08 04:41:40;;;;;;;6.30;5.80;;;12.10;99.90;;;;;;5092085;28;20028;-86
2022/05/08 04:44:06;;;;;;;8.27;6.10;;;11.90;99.90;;;;;;5091312;28;20027;-86
2022/05/08 04:46:31;;;;;;;8.93;5.95;;;12.10;99.90;;;;;;5092649;28;20025;-87
2022/05/08 04:48:57;;;;;;;8.52;5.80;;;11.80;99.90;;;;;;5092295;28;20061;-87
2022/05/08 04:51:23;;;;;;;6.78;5.72;;;11.70;99.90;;;;;;5092227;28;20032;-87
2022/05/08 04:53:48;;;;;;;6.63;6.00;;;11.80;99.90;;;;;;5091965;28;20039;-87
2022/05/08 04:56:14;;;;;;;6.63;5.82;;;11.80;99.90;;;;;;5090694;28;20413;-87
2022/05/08 04:58:41;;;;;;;7.43;6.32;;;12.10;99.90;;;;;;5091242;28;20039;-86
2022/05/08 05:01:06;;;;;;;6.93;6.22;;;12.20;99.90;;;;;;5092543;28;20024;-86
2022/05/08 05:03:32;;;;;;;8.25;6.50;;;12.40;99.90;;;;;;5090257;28;20028;-86
2022/05/08 05:05:58;;;;;;;7.78;5.95;;;12.20;99.90;;;;;;5091607;28;20032;-86
2022/05/08 05:08:23;;;;;;;6.72;5.95;;;12.00;99.90;;;;;;5092069;28;20036;-87
2022/05/08 05:10:49;;;;;;;7.10;6.13;;;12.30;99.90;;;;;;5091921;28;20120;-87
2022/05/08 05:13:15;;;;;;;7.45;6.60;;;12.40;99.90;;;;;;5092480;28;20031;-86
2022/05/08 05:15:41;;;;;;;6.93;6.20;;;12.60;99.90;;;;;;5091284;28;20127;-87
2022/05/08 05:18:07;;;;;;;9.00;6.50;;;12.30;99.90;;;;;;5091788;28;20102;-86
2022/05/08 05:20:32;;;;;;;7.40;6.03;;;12.00;99.90;;;;;;5091436;28;20036;-87
2022/05/08 05:23:01;;;;;;;10.02;6.28;;;12.00;99.90;;;;;;5092020;28;20058;-86
2022/05/08 05:25:28;;;;;;;7.65;5.90;;;12.30;99.90;;;;;;5090634;28;20024;-87
2022/05/08 05:27:55;;;;;;;6.95;5.93;;;12.30;99.90;;;;;;5092007;28;20058;-86
2022/05/08 05:30:21;;;;;;;7.25;5.80;;;12.30;99.90;;;;;;5090174;28;20028;-86
2022/05/08 05:32:47;;;;;;;6.45;5.85;;;12.40;99.90;;;;;;5090898;28;20024;-87
2022/05/08 05:35:13;;;;;;;9.15;6.10;;;12.50;99.90;;;;;;5091230;28;20043;-86
2022/05/08 05:37:39;;;;;;;6.80;6.20;;;12.50;99.90;;;;;;5091413;28;20020;-87
2022/05/08 05:40:06;;;;;;;8.65;6.05;;;12.40;99.90;;;;;;5090600;28;20389;-86
2022/05/08 05:42:32;;;;;;;7.05;5.82;;;12.60;99.90;;;;;;5091463;28;20020;-89
2022/05/08 05:44:58;;;;;;;8.23;6.72;;;12.70;99.90;;;;;;5091083;28;20032;-86
2022/05/08 05:50:09;;;;;;;6.88;5.70;;;12.80;99.90;;;;;;5091331;28;20051;-86
2022/05/08 05:52:35;;;;;;;7.43;6.70;;;12.70;99.90;;;;;;5095760;28;20032;-86
2022/05/08 05:55:04;;;;;;;8.45;6.43;;;12.90;99.90;;;;;;5096443;28;20036;-87
2022/05/08 05:57:30;;;;;;;9.27;6.55;;;13.00;99.90;;;;;;5095276;28;20028;-86
2022/05/08 05:59:56;;;;;;;9.55;6.38;;;13.20;99.90;;;;;;5095168;28;20410;-86
2022/05/08 06:02:21;;;;;;;6.82;5.72;;;13.30;99.90;;;;;;5093624;28;20080;-87
2022/05/08 06:04:47;;;;;;;7.60;6.72;;;13.30;99.90;;;;;;5077892;28;20138;-86
2022/05/08 06:07:13;;;;;;;7.50;6.80;;;13.40;99.90;;;;;;5091529;28;20484;-86
2022/05/08 06:09:38;;;;;;;9.35;7.55;;;13.30;99.90;;;;;;5093697;28;20392;-86
2022/05/08 06:12:04;;;;;;;9.02;7.80;;;13.10;99.90;;;;;;5084957;28;20028;-86
2022/05/08 06:14:30;;;;;;;8.80;6.97;;;13.20;99.90;;;;;;5084868;28;20055;-86
2022/05/08 06:16:56;;;;;;;7.88;7.07;;;13.30;99.90;;;;;;5094775;28;20035;-86
2022/05/08 06:19:21;;;;;;;8.57;7.25;;;13.40;99.90;;;;;;5094920;28;20115;-86
2022/05/08 06:21:47;;;;;;;7.63;6.93;;;13.60;99.90;;;;;;5095189;28;20058;-86
2022/05/08 06:24:13;;;;;;;7.93;7.13;;;13.70;99.90;;;;;;5095066;28;20093;-86
2022/05/08 06:26:39;;;;;;;9.18;7.65;;;13.70;99.90;;;;;;5094593;28;20112;-86
2022/05/08 06:29:04;;;;;;;8.48;7.55;;;13.90;99.90;;;;;;5094660;28;20035;-86
2022/05/08 06:31:30;;;;;;;7.80;7.10;;;14.00;99.90;;;;;;5093970;28;20027;-86
2022/05/08 06:33:56;;;;;;;9.95;7.20;;;14.10;99.90;;;;;;5094572;28;20032;-86
2022/05/08 06:36:22;;;;;;;8.55;7.63;;;14.20;99.90;;;;;;5094399;28;20404;-86
2022/05/08 06:38:48;;;;;;;8.10;7.40;;;14.20;99.90;;;;;;5094261;28;20119;-86
2022/05/08 06:41:14;;;;;;;9.35;7.32;;;14.20;99.90;;;;;;5094547;28;20464;-86
2022/05/08 06:43:40;;;;;;;8.95;7.68;;;14.20;99.90;;;;;;5094480;28;20093;-86
2022/05/08 06:46:09;;;;;;;9.95;7.53;;;14.30;99.90;;;;;;5095122;28;20072;-86
2022/05/08 06:48:35;;;;;;;8.93;7.45;;;14.40;99.90;;;;;;5083276;28;20037;-86
2022/05/08 06:51:02;;;;;;;8.95;8.05;;;14.40;99.90;;;;;;5087312;28;20020;-85
2022/05/08 06:53:28;;;;;;;9.13;8.30;;;14.40;99.90;;;;;;5094121;28;20024;-86
2022/05/08 06:55:54;;;;;;;9.15;8.23;;;14.60;99.90;;;;;;5094573;28;20424;-86
2022/05/08 06:58:24;;;;;;;8.80;7.90;;;14.60;99.90;;;;;;5094929;28;20016;-86
2022/05/08 07:03:36;;;;;;;8.65;7.20;;;14.60;99.90;;;;;;5092707;28;20069;-86
2022/05/08 07:06:01;;;;;;;7.95;7.32;;;14.60;99.90;;;;;;5093792;28;20461;-86
2022/05/08 07:08:27;;;;;;;8.40;7.60;;;14.50;99.90;;;;;;5093894;28;20028;-86
2022/05/08 07:10:53;;;;;;;8.70;7.80;;;14.50;99.90;;;;;;5094068;28;20047;-86
2022/05/08 07:13:25;;;;;;;9.15;7.18;;;14.40;99.90;;;;;;5094114;28;20095;-86
2022/05/08 07:15:51;;;;;;;8.68;7.85;;;14.40;99.90;;;;;;5094535;28;20173;-86
2022/05/08 07:18:19;;;;;;;10.25;8.38;;;14.60;99.90;;;;;;5093416;28;20028;-86
2022/05/08 07:20:44;;;;;;;10.52;7.93;;;14.70;99.90;;;;;;5093722;28;20107;-86
2022/05/08 07:23:11;;;;;;;8.88;7.97;;;14.90;99.90;;;;;;5093808;28;20119;-86
2022/05/08 07:25:38;;;;;;;8.57;7.72;;;14.70;99.90;;;;;;5093618;28;20403;-86
2022/05/08 07:28:04;;;;;;;8.57;7.70;;;14.90;99.90;;;;;;5093840;28;20054;-86
2022/05/08 07:30:29;;;;;;;10.30;8.65;;;14.90;99.90;;;;;;5092538;28;20047;-86
2022/05/08 07:32:56;;;;;;;9.07;8.18;;;14.90;99.90;;;;;;5092282;28;20468;-86
2022/05/08 07:38:06;;;;;;;8.77;7.97;;;14.90;99.90;;;;;;5093731;28;20050;-86
2022/05/08 07:40:33;;;;;;;8.85;7.95;;;15.00;99.90;;;;;;5095897;28;20492;-94
2022/05/08 07:42:59;;;;;;;9.05;8.25;;;15.20;99.90;;;;;;5095269;28;20040;-89
2022/05/08 07:45:24;;;;;;;8.85;8.05;;;15.20;99.90;;;;;;5094515;28;20032;-93
2022/05/08 07:47:50;;;;;;;8.80;7.90;;;15.30;99.90;;;;;;5093294;28;20419;-89
2022/05/08 07:50:16;;;;;;;8.90;8.02;;;15.40;99.90;;;;;;5094349;28;20083;-88
2022/05/08 07:52:41;;;;;;;9.20;8.10;;;15.50;99.90;;;;;;5092394;28;20389;-88
2022/05/08 07:55:10;;;;;;;9.18;8.27;;;15.50;99.90;;;;;;5093229;28;20492;-89
2022/05/08 07:57:36;;;;;;;8.40;7.70;;;15.60;99.90;;;;;;5093733;28;20127;-92
2022/05/08 08:00:03;;;;;;;9.25;8.35;;;15.70;99.90;;;;;;5092603;28;20110;-89
2022/05/08 08:02:29;;;;;;;9.00;8.20;;;15.70;99.90;;;;;;5093015;28;20430;-89
2022/05/08 08:04:55;;;;;;;8.80;7.88;;;15.80;99.90;;;;;;5094616;28;20027;-90
2022/05/08 08:07:21;;;;;;;9.20;8.40;;;15.90;99.90;;;;;;5092956;28;20100;-90
2022/05/08 08:09:46;;;;;;;8.93;7.90;;;15.80;99.90;;;;;;5094085;28;20061;-89
2022/05/08 08:12:12;;;;;;;8.13;7.32;;;15.80;99.90;;;;;;5094123;28;20027;-90
2022/05/08 08:14:37;;;;;;;10.15;8.15;;;16.00;99.90;;;;;;5091951;28;20040;-89
2022/05/08 08:17:03;;;;;;;9.30;8.35;;;16.10;99.90;;;;;;5093357;28;20028;-89
2022/05/08 08:19:30;;;;;;;8.30;7.63;;;16.10;99.90;;;;;;5092445;28;20031;-90
2022/05/08 08:21:56;;;;;;;9.27;8.40;;;16.30;99.90;;;;;;5094030;28;20430;-90
2022/05/08 08:24:22;;;;;;;9.02;8.05;;;16.30;99.90;;;;;;5093921;28;20028;-89
2022/05/08 08:26:47;;;;;;;9.43;8.52;;;16.30;99.90;;;;;;5092087;28;20135;-90
2022/05/08 08:29:14;;;;;;;8.63;7.82;;;16.30;99.90;;;;;;5091490;28;20047;-89
2022/05/08 08:31:40;;;;;;;9.90;8.40;;;16.30;99.90;;;;;;5093395;28;20032;-89
2022/05/08 08:34:06;;;;;;;10.73;7.88;;;16.40;99.90;;;;;;5094162;28;20040;-89
2022/05/08 08:36:31;;;;;;;8.73;7.93;;;16.60;99.90;;;;;;5092937;28;20385;-89
2022/05/08 08:38:57;;;;;;;8.73;7.93;;;16.60;99.90;;;;;;5092440;28;20028;-89
2022/05/08 08:41:30;;;;;;;8.55;7.72;;;16.60;99.90;;;;;;5093128;28;20032;-90
2022/05/08 08:49:41;;;;;;;9.52;8.57;;;17.00;99.90;;;;;;5092671;28;20560;-89
2022/05/08 08:52:07;;;;;;;9.00;8.25;;;17.10;99.90;;;;;;5092603;28;20047;-89
2022/05/08 08:54:33;;;;;;;9.00;8.18;;;17.00;99.90;;;;;;5092034;28;20555;-90
2022/05/08 08:56:59;;;;;;;8.40;7.60;;;17.00;99.90;;;;;;5091798;28;20047;-90
2022/05/08 08:59:25;;;;;;;9.20;8.30;;;17.20;99.90;;;;;;5092276;28;20085;-90
2022/05/08 09:01:51;;;;;;;8.60;7.90;;;17.30;99.90;;;;;;5091775;28;20016;-89
2022/05/08 09:04:18;;;;;;;8.48;7.70;;;17.50;99.90;;;;;;5092753;28;20028;-91
2022/05/08 09:06:45;;;;;;;8.75;7.85;;;17.50;99.90;;;;;;5093883;28;20036;-91
2022/05/08 09:09:26;;;;;;;8.05;7.35;;;17.50;99.90;;;;;;5092349;28;20468;-89
2022/05/08 09:11:56;;;;;;;9.02;7.50;;;17.60;99.90;;;;;;5092410;28;20016;-88
2022/05/08 09:14:33;;;;;;;9.32;7.35;;;17.70;99.90;;;;;;5092203;28;20518;-90
2022/05/08 09:17:00;;;;;;;9.27;8.25;;;17.70;99.90;;;;;;5093233;28;20020;-90
2022/05/08 09:19:36;;;;;;;8.13;6.85;;;17.60;99.90;;;;;;5091993;28;20030;-90
2022/05/08 09:22:03;;;;;;;8.57;7.78;;;17.80;99.90;;;;;;5090170;28;20104;-90
2022/05/08 09:24:30;;;;;;;8.10;7.03;;;17.80;99.90;;;;;;5092310;28;20119;-90
2022/05/08 09:27:16;;;;;;;7.65;7.00;;;17.80;99.90;;;;;;5091069;28;20096;-89
2022/05/08 09:29:42;;;;;;;9.35;7.85;;;18.10;99.90;;;;;;5084325;28;20074;-89
2022/05/08 09:32:10;;;;;;;7.78;7.05;;;18.10;99.90;;;;;;5091516;28;20383;-89
2022/05/08 09:34:59;;;;;;;9.85;7.55;;;18.20;99.90;;;;;;5092659;28;20418;-90
2022/05/08 09:37:25;;;;;;;9.32;7.95;;;18.30;99.90;;;;;;5089789;28;20024;-89
2022/05/08 09:39:51;;;;;;;7.95;7.25;;;18.30;99.90;;;;;;5092596;28;20034;-90
2022/05/08 09:42:39;;;;;;;7.70;7.00;;;18.50;99.90;;;;;;5091655;28;20488;-91
2022/05/08 09:45:10;;;;;;;8.55;7.45;;;18.70;99.90;;;;;;5091991;28;20024;-92
2022/05/08 09:47:43;;;;;;;8.50;7.70;;;18.60;99.90;;;;;;5081884;28;20504;-91
2022/05/08 09:50:10;;;;;;;8.15;6.90;;;18.60;99.90;;;;;;5092296;28;20093;-91
2022/05/08 09:52:40;;;;;;;7.15;6.45;;;18.70;99.90;;;;;;5092990;28;20032;-91
2022/05/08 09:55:13;;;;;;;7.20;6.50;;;18.90;99.90;;;;;;5092319;28;20514;-90
2022/05/08 09:57:39;;;;;;;7.00;6.40;;;18.90;99.90;;;;;;5091776;28;20043;-91
2022/05/08 10:00:07;;;;;;;6.85;6.15;;;19.00;99.90;;;;;;5090775;28;20028;-88
2022/05/08 10:02:34;;;;;;;7.32;6.72;;;19.00;99.90;;;;;;5091019;28;20028;-88
2022/05/08 10:05:01;;;;;;;6.63;6.00;;;19.00;99.90;;;;;;5092289;28;20089;-91
2022/05/08 10:07:27;;;;;;;7.60;6.80;;;19.20;99.90;;;;;;5092351;28;20099;-92
2022/05/08 10:15:30;;;;;;;6.60;6.05;;;19.50;99.90;;;;;;5091416;28;20523;-89
2022/05/08 10:18:23;;;;;;;7.72;5.65;;;19.70;99.90;;;;;;5091732;28;20020;-91
2022/05/08 10:21:07;;;;;;;6.82;6.22;;;19.70;99.90;;;;;;5092279;28;20054;-91
2022/05/08 10:23:43;;;;;;;9.32;7.05;;;20.00;99.90;;;;;;5091618;28;20477;-91
2022/05/08 10:26:19;;;;;;;7.03;6.18;;;20.10;99.90;;;;;;5090466;28;20035;-88
2022/05/08 10:29:03;;;;;;;8.85;6.07;;;20.00;99.90;;;;;;5090191;28;20752;-88
2022/05/08 10:31:46;;;;;;;6.97;6.30;;;20.00;99.90;;;;;;5089546;28;20028;-88
2022/05/08 10:34:13;;;;;;;7.32;6.70;;;20.20;99.90;;;;;;5091376;28;20388;-88
2022/05/08 10:36:42;;;;;;;6.25;5.65;;;20.30;99.90;;;;;;5091574;28;20024;-88
2022/05/08 10:39:37;;;;;;;6.68;6.07;;;20.20;99.90;;;;;;5094942;28;20051;-89
2022/05/08 10:42:02;;;;;;;6.55;5.95;;;20.60;99.90;;;;;;5095508;28;20028;-91
2022/05/08 10:44:35;;;;;;;7.22;6.53;;;20.70;99.90;;;;;;5094731;28;20032;-89
2022/05/08 10:47:32;;;;;;;17.40;8.18;;;20.50;99.90;;;;;;5095539;28;20020;-90
2022/05/08 10:49:58;;;;;;;6.57;5.97;;;20.90;99.90;;;;;;5079346;28;20038;-91
2022/05/08 10:52:24;;;;;;;6.30;5.70;;;21.30;99.90;;;;;;5079297;28;20035;-93
2022/05/08 10:54:56;;;;;;;6.05;5.55;;;21.50;99.90;;;;;;5094678;28;20032;-93
2022/05/08 10:57:49;;;;;;;5.82;5.10;;;21.90;99.90;;;;;;5094878;28;20036;-89
2022/05/08 11:00:25;;;;;;;6.10;5.60;;;22.10;99.90;;;;;;5094130;28;20043;-91
2022/05/08 11:02:56;;;;;;;6.40;5.82;;;21.80;99.90;;;;;;5097101;28;20026;-92
2022/05/08 11:05:30;;;;;;;5.80;5.25;;;22.00;99.90;;;;;;5096187;28;20080;-94
2022/05/08 11:08:00;;;;;;;5.60;5.10;;;21.90;99.90;;;;;;5079905;28;20024;-90
2022/05/08 11:10:31;;;;;;;5.35;4.95;;;22.20;99.90;;;;;;5095849;28;20028;-94
2022/05/08 11:13:18;;;;;;;5.60;5.10;;;22.20;99.90;;;;;;5094424;28;20024;-93
2022/05/08 11:15:43;;;;;;;4.78;4.47;;;22.20;99.90;;;;;;5095250;28;20032;-95
2022/05/08 11:18:10;;;;;;;5.18;4.72;;;22.20;99.90;;;;;;5094674;28;20027;-88
2022/05/08 11:20:42;;;;;;;5.53;4.60;;;22.30;99.90;;;;;;5094144;28;20066;-88
2022/05/08 11:23:11;;;;;;;5.13;4.72;;;22.30;99.90;;;;;;5094095;28;20024;-94
2022/05/08 11:25:37;;;;;;;5.30;4.90;;;22.60;99.90;;;;;;5092010;28;20044;-90
2022/05/08 11:28:02;;;;;;;5.50;5.00;;;23.00;99.90;;;;;;5095540;28;20137;-92
2022/05/08 11:30:34;;;;;;;5.30;4.80;;;23.10;99.90;;;;;;5095342;28;20172;-93
2022/05/08 11:36:04;;;;;;;5.88;5.40;;;22.80;99.90;;;;;;5091341;28;20071;-90
2022/05/08 11:38:42;;;;;;;5.25;4.80;;;23.20;99.90;;;;;;5083839;28;20028;-94
2022/05/08 11:41:09;;;;;;;5.82;5.32;;;23.50;99.90;;;;;;5093098;28;20111;-90
2022/05/08 11:43:46;;;;;;;4.80;4.40;;;23.50;99.90;;;;;;5092904;28;20496;-90
2022/05/08 11:46:15;;;;;;;4.68;4.28;;;23.60;99.90;;;;;;5093223;28;20032;-93
2022/05/08 11:48:46;;;;;;;5.30;4.80;;;24.50;99.90;;;;;;5093624;28;20032;-91
2022/05/08 11:51:17;;;;;;;4.97;4.13;;;25.00;99.90;;;;;;5095465;28;20086;-91
2022/05/08 11:53:52;;;;;;;4.07;3.78;;;25.90;99.90;;;;;;5094335;28;20020;-92
2022/05/08 11:56:32;;;;;;;5.13;4.07;;;26.00;99.90;;;;;;5092862;28;20058;-91
2022/05/08 11:58:59;;;;;;;4.47;4.07;;;26.00;99.90;;;;;;5091136;28;20028;-92
2022/05/08 12:01:35;;;;;;;4.10;3.83;;;26.20;99.90;;;;;;5094545;28;20112;-92
2022/05/08 12:04:23;;;;;;;4.70;4.05;;;25.90;99.90;;;;;;5092946;28;20028;-92
2022/05/08 12:07:08;;;;;;;5.85;4.50;;;25.50;99.90;;;;;;5094323;28;20032;-92
2022/05/08 12:09:39;;;;;;;4.50;4.10;;;25.10;99.90;;;;;;5093874;28;20082;-91
2022/05/08 12:12:34;;;;;;;4.40;4.00;;;25.50;99.90;;;;;;5087280;28;20048;-91
2022/05/08 12:15:12;;;;;;;4.45;4.10;;;25.80;99.90;;;;;;5086900;28;20036;-91
2022/05/08 12:17:44;;;;;;;4.38;3.90;;;26.20;99.90;;;;;;5092591;28;20051;-91
2022/05/08 12:20:26;;;;;;;6.35;4.03;;;27.00;99.90;;;;;;5092474;28;20166;-91
2022/05/08 12:23:06;;;;;;;3.88;3.58;;;26.40;99.90;;;;;;5076634;28;20016;-91
2022/05/08 12:25:32;;;;;;;3.90;3.60;;;26.30;99.90;;;;;;5093539;28;20020;-92
2022/05/08 12:27:58;;;;;;;4.03;3.72;;;26.70;99.90;;;;;;5094433;28;20052;-91
2022/05/08 12:30:25;;;;;;;4.10;3.80;;;25.80;99.90;;;;;;5092402;28;20503;-91
2022/05/08 12:32:51;;;;;;;4.15;3.85;;;26.00;99.90;;;;;;5092543;28;20032;-91
2022/05/08 12:35:18;;;;;;;5.13;3.70;;;25.90;99.90;;;;;;5093154;28;20028;-91
2022/05/08 12:37:47;;;;;;;3.72;3.42;;;25.50;99.90;;;;;;5093532;28;20012;-91
2022/05/08 12:40:14;;;;;;;3.80;3.50;;;26.70;99.90;;;;;;5094096;28;20361;-91
2022/05/08 12:42:40;;;;;;;3.67;3.40;;;27.00;99.90;;;;;;5081625;28;20027;-91
2022/05/08 12:45:07;;;;;;;3.58;3.38;;;28.00;99.90;;;;;;5086562;28;20459;-91
2022/05/08 12:47:33;;;;;;;3.88;3.60;;;28.50;99.90;;;;;;5092996;28;20024;-91
2022/05/08 12:49:58;;;;;;;3.30;3.10;;;28.50;99.90;;;;;;5092706;28;20032;-91
2022/05/08 12:52:24;;;;;;;3.63;3.30;;;27.60;99.90;;;;;;5093299;28;20016;-92
2022/05/08 12:54:50;;;;;;;4.00;3.70;;;27.40;99.90;;;;;;5093476;28;20080;-91
2022/05/08 12:59:42;;;;;;;3.78;3.47;;;26.80;99.90;;;;;;5092873;28;20412;-91
2022/05/08 13:00:02;;;;;;;3.80;3.50;;;26.60;99.90;;;;;;5086050;28;20032;-91
2022/05/08 13:02:28;;;;;;;3.75;3.28;;;26.50;99.90;;;;;;5082315;28;20101;-91
2022/05/08 13:04:54;;;;;;;3.97;3.67;;;26.40;99.90;;;;;;5092904;28;20492;-90
2022/05/08 13:07:20;;;;;;;3.75;3.45;;;26.30;99.90;;;;;;5091758;28;20031;-91
2022/05/08 13:09:46;;;;;;;3.70;3.40;;;27.00;99.90;;;;;;5092057;28;20039;-91
2022/05/08 13:12:12;;;;;;;3.72;3.42;;;26.90;99.90;;;;;;5093126;28;20019;-91
2022/05/08 13:14:38;;;;;;;3.90;3.60;;;26.20;99.90;;;;;;5092255;28;20556;-91
2022/05/08 13:17:05;;;;;;;3.83;3.53;;;25.80;99.90;;;;;;5092051;28;20502;-90
2022/05/08 13:19:33;;;;;;;4.38;3.65;;;25.80;99.90;;;;;;5092812;28;20480;-90
2022/05/08 13:22:01;;;;;;;4.15;3.78;;;25.60;99.90;;;;;;5090992;28;20074;-91